createdAt,value
2022-12-13T00:01:44.246Z,6.43
2022-12-13T00:04:12.141Z,15.93
2022-12-13T00:06:39.139Z,11.40
2022-12-13T00:09:06.870Z,11.23
2022-12-13T00:11:34.690Z,8.53
2022-12-13T00:14:02.051Z,6.97
2022-12-13T00:16:29.290Z,10.60
2022-12-13T00:19:00.033Z,12.03
2022-12-13T00:21:31.227Z,12.93
2022-12-13T00:24:00.863Z,13.33
2022-12-13T00:26:31.210Z,7.40
2022-12-13T00:29:06.477Z,8.37
2022-12-13T00:34:21.439Z,19.83
2022-12-13T00:36:48.998Z,11.67
2022-12-13T00:39:19.345Z,16.93
2022-12-13T00:41:46.878Z,14.27
2022-12-13T00:44:14.768Z,24.30
2022-12-13T00:46:43.216Z,17.50
2022-12-13T00:49:12.589Z,16.03
2022-12-13T00:51:40.737Z,19.97
2022-12-13T00:54:07.813Z,19.87
2022-12-13T00:56:35.101Z,12.47
2022-12-13T00:59:02.098Z,7.53
2022-12-13T01:01:33.454Z,12.17
2022-12-13T01:04:02.919Z,9.27
2022-12-13T01:06:34.286Z,13.80
2022-12-13T01:09:02.942Z,11.43
2022-12-13T01:11:29.872Z,13.57
2022-12-13T01:13:56.812Z,8.33
2022-12-13T01:16:23.797Z,12.37
2022-12-13T01:18:51.077Z,10.90
2022-12-13T01:21:23.133Z,13.73
2022-12-13T01:23:50.602Z,8.47
2022-12-13T01:26:21.799Z,9.93
2022-12-13T01:28:49.636Z,15.80
2022-12-13T01:31:20.405Z,8.73
2022-12-13T01:33:48.589Z,8.37
2022-12-13T01:36:19.475Z,11.50
2022-12-13T01:38:58.296Z,8.60
2022-12-13T01:41:29.151Z,7.40
2022-12-13T01:44:41.988Z,18.80
2022-12-13T01:47:09.703Z,9.20
2022-12-13T01:49:37.104Z,10.90
2022-12-13T01:52:08.899Z,9.53
2022-12-13T01:54:46.613Z,7.93
2022-12-13T01:57:18.586Z,9.83
2022-12-13T01:59:47.538Z,14.57
2022-12-13T02:02:15.739Z,7.80
2022-12-13T02:04:56.767Z,14.37
2022-12-13T02:07:34.030Z,7.00
2022-12-13T02:10:06.011Z,15.93
2022-12-13T02:12:37.299Z,9.57
2022-12-13T02:15:13.734Z,9.47
2022-12-13T02:17:50.024Z,8.20
2022-12-13T02:20:47.509Z,10.93
2022-12-13T02:23:54.502Z,11.67
2022-12-13T02:26:47.382Z,13.67
2022-12-13T02:29:45.709Z,9.60
2022-12-13T02:33:07.305Z,8.60
2022-12-13T02:36:18.189Z,5.27
2022-12-13T02:39:10.554Z,10.10
2022-12-13T02:41:50.343Z,5.90
2022-12-13T02:44:52.480Z,7.70
2022-12-13T02:47:24.581Z,13.60
2022-12-13T02:49:57.474Z,11.50
2022-12-13T02:52:28.664Z,10.50
2022-12-13T02:54:57.205Z,7.80
2022-12-13T02:57:45.881Z,7.57
2022-12-13T03:00:34.585Z,7.00
2022-12-13T03:03:31.892Z,8.27
2022-12-13T03:06:56.203Z,8.90
2022-12-13T03:09:57.013Z,5.73
2022-12-13T03:13:04.678Z,9.13
2022-12-13T03:15:45.490Z,9.27
2022-12-13T03:18:18.399Z,9.10
2022-12-13T03:21:00.929Z,12.63
2022-12-13T03:23:29.030Z,12.30
2022-12-13T03:26:03.754Z,8.50
2022-12-13T03:28:30.828Z,8.37
2022-12-13T03:30:57.872Z,11.00
2022-12-13T03:33:24.990Z,10.70
2022-12-13T03:35:52.369Z,8.37
2022-12-13T03:38:22.215Z,10.47
2022-12-13T03:40:59.151Z,15.53
2022-12-13T03:43:27.522Z,11.20
2022-12-13T03:45:55.197Z,8.67
2022-12-13T03:48:23.829Z,15.87
2022-12-13T03:50:53.609Z,10.10
2022-12-13T03:53:33.641Z,12.07
2022-12-13T03:56:06.465Z,11.17
2022-12-13T03:58:37.743Z,9.80
2022-12-13T04:01:07.699Z,6.70
2022-12-13T04:03:36.688Z,8.20
2022-12-13T04:06:05.534Z,13.87
2022-12-13T04:08:33.224Z,9.60
2022-12-13T04:11:00.265Z,11.67
2022-12-13T04:13:33.112Z,12.50
2022-12-13T04:16:02.312Z,10.20
2022-12-13T04:18:29.699Z,8.10
2022-12-13T04:20:57.658Z,12.50
2022-12-13T04:23:25.099Z,14.40
2022-12-13T04:25:52.215Z,14.87
2022-12-13T04:28:22.470Z,16.03
2022-12-13T04:30:53.769Z,14.83
2022-12-13T04:33:22.862Z,11.20
2022-12-13T04:35:50.892Z,9.37
2022-12-13T04:38:18.608Z,16.03
2022-12-13T04:40:45.771Z,10.80
2022-12-13T04:43:12.809Z,11.13
2022-12-13T04:45:39.892Z,13.27
2022-12-13T04:48:07.703Z,19.73
2022-12-13T04:50:35.178Z,12.93
2022-12-13T04:53:02.142Z,13.50
2022-12-13T04:55:29.210Z,20.03
2022-12-13T04:57:56.073Z,12.57
2022-12-13T05:00:23.455Z,14.70
2022-12-13T05:02:50.827Z,11.67
2022-12-13T05:05:18.833Z,10.30
2022-12-13T05:07:46.413Z,15.53
2022-12-13T05:10:37.482Z,13.73
2022-12-13T05:13:01.004Z,12.63
2022-12-13T05:15:30.599Z,13.60
2022-12-13T05:18:09.943Z,13.70
2022-12-13T05:20:40.071Z,13.97
2022-12-13T05:23:07.434Z,17.53
2022-12-13T05:25:37.443Z,13.33
2022-12-13T05:28:08.938Z,16.10
2022-12-13T05:30:54.543Z,16.30
2022-12-13T05:33:23.397Z,21.00
2022-12-13T05:35:52.896Z,26.07
2022-12-13T05:38:22.184Z,35.37
2022-12-13T05:40:49.173Z,38.13
2022-12-13T05:43:21.267Z,28.63
2022-12-13T05:45:48.774Z,34.13
2022-12-13T05:48:16.315Z,36.17
2022-12-13T05:51:09.772Z,31.20
2022-12-13T05:53:43.386Z,32.10
2022-12-13T05:56:11.761Z,35.43
2022-12-13T05:58:41.535Z,28.60
2022-12-13T06:01:11.600Z,33.70
2022-12-13T06:03:39.564Z,36.97
2022-12-13T06:06:10.132Z,37.93
2022-12-13T06:08:37.642Z,32.43
2022-12-13T06:11:10.887Z,38.07
2022-12-13T06:13:42.821Z,40.00
2022-12-13T06:16:23.379Z,40.83
2022-12-13T06:19:03.868Z,31.00
2022-12-13T06:21:41.484Z,32.60
2022-12-13T06:24:15.916Z,35.40
2022-12-13T06:26:45.359Z,29.60
2022-12-13T06:29:24.245Z,36.17
2022-12-13T06:32:01.927Z,39.97
2022-12-13T06:34:36.141Z,32.00
2022-12-13T06:37:07.341Z,30.80
2022-12-13T06:39:35.167Z,34.40
2022-12-13T06:42:06.398Z,34.07
2022-12-13T06:44:35.359Z,29.33
2022-12-13T06:47:10.795Z,29.97
2022-12-13T06:49:43.698Z,35.60
2022-12-13T06:52:14.057Z,38.43
2022-12-13T06:54:43.154Z,32.20
2022-12-13T06:57:12.548Z,34.53
2022-12-13T06:59:40.326Z,24.43
2022-12-13T07:02:24.210Z,30.50
2022-12-13T07:04:52.499Z,22.10
2022-12-13T07:07:19.449Z,27.73
2022-12-13T07:09:46.529Z,29.63
2022-12-13T07:12:13.458Z,32.17
2022-12-13T07:14:41.441Z,34.07
2022-12-13T07:17:08.577Z,34.27
2022-12-13T07:19:36.084Z,27.67
2022-12-13T07:22:06.327Z,25.90
2022-12-13T07:24:35.807Z,27.80
2022-12-13T07:27:04.415Z,24.30
2022-12-13T07:29:31.407Z,37.47
2022-12-13T07:32:01.022Z,35.33
2022-12-13T07:34:30.826Z,31.33
2022-12-13T07:36:58.145Z,19.93
2022-12-13T07:39:28.778Z,30.23
2022-12-13T07:41:56.757Z,28.93
2022-12-13T07:44:25.036Z,25.63
2022-12-13T07:46:52.735Z,23.80
2022-12-13T07:49:20.256Z,28.23
2022-12-13T07:51:47.309Z,21.87
2022-12-13T07:54:14.269Z,32.53
2022-12-13T07:56:41.205Z,27.33
2022-12-13T07:59:10.615Z,26.20
2022-12-13T08:01:37.685Z,27.67
2022-12-13T08:04:05.134Z,29.20
2022-12-13T08:06:38.065Z,22.47
2022-12-13T08:09:06.154Z,23.20
2022-12-13T08:11:33.437Z,24.53
2022-12-13T08:14:00.848Z,27.53
2022-12-13T08:16:29.717Z,22.87
2022-12-13T08:19:02.755Z,24.43
2022-12-13T08:21:57.468Z,24.27
2022-12-13T08:24:29.036Z,23.40
2022-12-13T08:27:02.919Z,17.90
2022-12-13T08:29:33.477Z,20.20
2022-12-13T08:32:05.426Z,24.17
2022-12-13T08:34:32.324Z,27.73
2022-12-13T08:37:02.272Z,20.13
2022-12-13T08:39:37.144Z,17.73
2022-12-13T08:42:19.439Z,32.07
2022-12-13T08:44:52.862Z,27.00
2022-12-13T08:47:26.725Z,17.40
2022-12-13T08:50:02.961Z,28.33
2022-12-13T08:52:40.243Z,35.60
2022-12-13T08:55:15.850Z,20.40
2022-12-13T08:57:44.549Z,20.43
2022-12-13T09:00:19.651Z,25.87
2022-12-13T09:02:46.685Z,21.70
2022-12-13T09:05:34.269Z,16.03
2022-12-13T09:08:03.039Z,37.13
2022-12-13T09:10:38.254Z,25.93
2022-12-13T09:13:11.545Z,25.33
2022-12-13T09:15:45.987Z,21.40
2022-12-13T09:18:15.135Z,24.93
2022-12-13T09:20:51.198Z,30.37
2022-12-13T09:23:23.561Z,23.67
2022-12-13T09:26:05.912Z,31.27
2022-12-13T09:28:35.645Z,24.43
2022-12-13T09:31:17.656Z,22.97
2022-12-13T09:33:46.143Z,30.17
2022-12-13T09:36:17.843Z,36.10
2022-12-13T09:38:45.283Z,33.10
2022-12-13T09:41:29.293Z,27.33
2022-12-13T09:44:30.624Z,28.30
2022-12-13T09:47:13.649Z,33.03
2022-12-13T09:49:52.703Z,30.93
2022-12-13T09:52:24.882Z,30.03
2022-12-13T09:54:57.312Z,33.80
2022-12-13T09:57:34.133Z,22.80
2022-12-13T10:00:16.415Z,28.00
2022-12-13T10:02:51.366Z,27.00
2022-12-13T10:05:40.287Z,34.20
2022-12-13T10:08:16.220Z,25.47
2022-12-13T10:10:43.998Z,29.87
2022-12-13T10:13:17.854Z,25.60
2022-12-13T10:15:52.089Z,23.43
2022-12-13T10:18:37.885Z,30.10
2022-12-13T10:21:13.628Z,23.17
2022-12-13T10:24:07.298Z,23.10
2022-12-13T10:26:37.636Z,19.33
2022-12-13T10:29:07.396Z,28.30
2022-12-13T10:31:49.161Z,24.57
2022-12-13T10:34:36.472Z,27.93
2022-12-13T10:37:24.333Z,31.27
2022-12-13T10:39:51.234Z,23.83
2022-12-13T10:42:22.172Z,24.40
2022-12-13T10:45:23.517Z,24.60
2022-12-13T10:47:52.288Z,23.27
2022-12-13T10:50:30.732Z,27.83
2022-12-13T10:53:00.337Z,21.43
2022-12-13T10:55:40.912Z,27.50
2022-12-13T10:58:19.388Z,25.17
2022-12-13T11:00:49.484Z,26.80
2022-12-13T11:03:33.317Z,19.57
2022-12-13T11:06:28.160Z,25.87
2022-12-13T11:08:55.565Z,24.20
2022-12-13T11:11:30.544Z,26.40
2022-12-13T11:14:03.740Z,26.67
2022-12-13T11:16:42.009Z,27.33
2022-12-13T11:19:20.941Z,22.10
2022-12-13T11:21:50.971Z,28.40
2022-12-13T11:24:26.441Z,30.47
2022-12-13T11:27:20.948Z,26.30
2022-12-13T11:30:31.451Z,22.87
2022-12-13T11:33:48.426Z,31.60
2022-12-13T11:36:33.744Z,19.73
2022-12-13T11:39:22.570Z,22.60
2022-12-13T11:42:13.313Z,20.90
2022-12-13T11:44:48.284Z,25.53
2022-12-13T11:47:26.574Z,20.47
2022-12-13T11:49:54.573Z,15.10
2022-12-13T11:52:40.119Z,15.13
2022-12-13T11:55:32.298Z,14.70
2022-12-13T11:58:16.456Z,14.40
2022-12-13T12:00:56.457Z,14.40
2022-12-13T12:03:46.890Z,9.60
2022-12-13T12:07:32.313Z,20.73
2022-12-13T12:10:32.495Z,18.70
2022-12-13T12:13:33.564Z,21.03
2022-12-13T12:16:43.108Z,13.60
2022-12-13T12:19:16.065Z,14.93
2022-12-13T12:22:14.467Z,11.77
2022-12-13T12:25:22.957Z,20.50
2022-12-13T12:28:13.975Z,21.73
2022-12-13T12:31:05.824Z,19.93
2022-12-13T12:34:15.437Z,15.93
2022-12-13T12:37:03.580Z,14.83
2022-12-13T12:39:44.943Z,18.00
2022-12-13T12:43:14.387Z,16.87
2022-12-13T12:45:56.474Z,15.57
2022-12-13T12:49:03.061Z,19.77
2022-12-13T12:52:11.074Z,18.83
2022-12-13T12:54:43.872Z,18.53
2022-12-13T12:57:34.413Z,16.13
2022-12-13T13:00:23.383Z,19.13
2022-12-13T13:03:22.295Z,22.90
2022-12-13T13:06:03.146Z,19.20
2022-12-13T13:09:05.848Z,17.17
2022-12-13T13:11:43.206Z,19.97
2022-12-13T13:14:28.999Z,17.73
2022-12-13T13:16:58.053Z,20.10
2022-12-13T13:19:30.957Z,22.47
2022-12-13T13:22:02.040Z,19.20
2022-12-13T13:24:31.595Z,18.00
2022-12-13T13:27:29.641Z,18.43
2022-12-13T13:30:18.507Z,19.87
2022-12-13T13:32:46.672Z,16.10
2022-12-13T13:35:29.074Z,19.73
2022-12-13T13:37:57.769Z,23.97
2022-12-13T13:40:34.646Z,21.87
2022-12-13T13:43:08.779Z,16.40
2022-12-13T13:46:03.469Z,16.80
2022-12-13T13:48:58.114Z,16.53
2022-12-13T13:52:24.378Z,19.43
2022-12-13T13:55:17.773Z,26.30
2022-12-13T13:58:31.622Z,24.23
2022-12-13T14:01:26.605Z,22.43
2022-12-13T14:04:10.488Z,20.07
2022-12-13T14:07:00.940Z,20.20
2022-12-13T14:10:17.891Z,20.93
2022-12-13T14:13:12.769Z,13.83
2022-12-13T14:16:31.716Z,17.93
2022-12-13T14:19:56.311Z,18.20
2022-12-13T14:22:54.938Z,15.90
2022-12-13T14:25:23.583Z,16.87
2022-12-13T14:28:20.513Z,20.83
2022-12-13T14:30:47.708Z,26.20
2022-12-13T14:33:26.978Z,20.60
2022-12-13T14:35:58.730Z,23.67
2022-12-13T14:38:30.464Z,19.73
2022-12-13T14:41:01.748Z,20.73
2022-12-13T14:43:32.989Z,19.67
2022-12-13T14:46:06.881Z,20.07
2022-12-13T14:48:51.478Z,17.07
2022-12-13T14:51:36.447Z,22.73
2022-12-13T14:54:07.349Z,18.00
2022-12-13T14:56:34.903Z,21.47
2022-12-13T14:59:18.089Z,20.43
2022-12-13T15:01:56.588Z,23.23
2022-12-13T15:04:38.003Z,23.10
2022-12-13T15:07:15.203Z,21.40
2022-12-13T15:09:44.893Z,19.43
2022-12-13T15:12:25.268Z,20.17
2022-12-13T15:15:04.578Z,23.40
2022-12-13T15:17:36.759Z,23.10
2022-12-13T15:20:32.004Z,19.57
2022-12-13T15:23:06.522Z,21.37
2022-12-13T15:25:35.867Z,20.40
2022-12-13T15:28:05.377Z,18.47
2022-12-13T15:30:35.598Z,22.80
2022-12-13T15:33:28.865Z,24.40
2022-12-13T15:36:21.708Z,22.10
2022-12-13T15:39:01.778Z,24.47
2022-12-13T15:41:34.887Z,25.83
2022-12-13T15:44:07.295Z,20.83
2022-12-13T15:46:40.671Z,18.80
2022-12-13T15:49:22.895Z,20.77
2022-12-13T15:52:25.779Z,23.03
2022-12-13T15:55:02.757Z,26.87
2022-12-13T15:57:34.122Z,22.33
2022-12-13T16:00:19.671Z,26.80
2022-12-13T16:03:09.019Z,28.70
2022-12-13T16:05:53.798Z,28.47
2022-12-13T16:08:31.404Z,26.23
2022-12-13T16:10:59.806Z,40.00
2022-12-13T16:13:30.375Z,27.20
2022-12-13T16:16:09.532Z,33.70
2022-12-13T16:18:51.034Z,32.80
2022-12-13T16:21:17.978Z,30.97
2022-12-13T16:23:48.754Z,28.47
2022-12-13T16:26:27.096Z,37.50
2022-12-13T16:28:58.880Z,43.80
2022-12-13T16:31:31.602Z,42.07
2022-12-13T16:33:58.500Z,35.30
2022-12-13T16:36:25.419Z,43.17
2022-12-13T16:38:52.281Z,32.40
2022-12-13T16:41:19.333Z,40.80
2022-12-13T16:44:01.810Z,34.73
2022-12-13T16:47:16.134Z,27.70
2022-12-13T16:49:26.306Z,34.60
2022-12-13T16:51:54.293Z,39.13
2022-12-13T16:54:23.953Z,33.70
2022-12-13T16:56:52.394Z,29.40
2022-12-13T16:59:23.695Z,43.30
2022-12-13T17:01:51.802Z,40.43
2022-12-13T17:04:27.530Z,40.43
2022-12-13T17:06:56.332Z,37.00
2022-12-13T17:09:25.579Z,28.50
2022-12-13T17:11:53.138Z,29.23
2022-12-13T17:14:20.027Z,25.13
2022-12-13T17:16:47.697Z,30.27
2022-12-13T17:19:15.803Z,25.03
2022-12-13T17:21:42.966Z,26.30
2022-12-13T17:24:10.096Z,23.73
2022-12-13T17:26:37.115Z,29.13
2022-12-13T17:29:05.136Z,29.93
2022-12-13T17:31:36.192Z,23.57
2022-12-13T17:34:05.520Z,37.27
2022-12-13T17:36:32.666Z,29.13
2022-12-13T17:38:59.708Z,28.03
2022-12-13T17:41:26.662Z,29.93
2022-12-13T17:43:53.570Z,28.70
2022-12-13T17:46:20.626Z,17.23
2022-12-13T17:48:47.827Z,27.07
2022-12-13T17:51:15.745Z,23.20
2022-12-13T17:53:44.681Z,20.20
2022-12-13T17:56:17.849Z,41.73
2022-12-13T17:58:45.329Z,49.90
2022-12-13T18:01:25.131Z,36.40
2022-12-13T18:03:55.783Z,38.10
2022-12-13T18:06:24.722Z,37.77
2022-12-13T18:08:51.680Z,29.63
2022-12-13T18:11:36.163Z,28.27
2022-12-13T18:14:08.408Z,26.97
2022-12-13T18:16:38.808Z,32.37
2022-12-13T18:19:10.509Z,29.80
2022-12-13T18:21:37.850Z,33.40
2022-12-13T18:24:07.150Z,38.73
2022-12-13T18:26:35.262Z,32.23
2022-12-13T18:29:04.404Z,38.03
2022-12-13T18:31:32.056Z,33.77
2022-12-13T18:33:59.541Z,40.13
2022-12-13T18:36:26.866Z,33.50
2022-12-13T18:38:54.098Z,32.10
2022-12-13T18:41:24.731Z,42.77
2022-12-13T18:44:02.281Z,45.33
2022-12-13T18:46:32.716Z,46.87
2022-12-13T18:49:00.175Z,51.10
2022-12-13T18:51:28.804Z,47.90
2022-12-13T18:53:56.349Z,52.60
2022-12-13T18:56:24.663Z,47.50
2022-12-13T18:58:52.706Z,49.70
2022-12-13T19:01:20.954Z,41.43
2022-12-13T19:03:49.124Z,27.20
2022-12-13T19:06:20.320Z,32.70
2022-12-13T19:08:52.806Z,29.87
2022-12-13T19:11:20.813Z,27.10
2022-12-13T19:13:49.115Z,31.40
2022-12-13T19:16:20.508Z,30.93
2022-12-13T19:18:48.658Z,24.50
2022-12-13T19:21:19.598Z,29.40
2022-12-13T19:23:54.975Z,33.40
2022-12-13T19:26:23.770Z,31.87
2022-12-13T19:28:51.289Z,26.67
2022-12-13T19:31:18.312Z,20.87
2022-12-13T19:33:45.294Z,20.47
2022-12-13T19:36:12.699Z,24.00
2022-12-13T19:38:42.039Z,31.60
2022-12-13T19:41:18.526Z,45.73
2022-12-13T19:43:52.480Z,20.80
2022-12-13T19:46:20.331Z,16.60
2022-12-13T19:48:48.268Z,24.07
2022-12-13T19:51:16.010Z,21.50
2022-12-13T19:53:42.979Z,18.57
2022-12-13T19:56:13.068Z,18.37
2022-12-13T19:58:40.297Z,20.97
2022-12-13T20:01:08.564Z,17.30
2022-12-13T20:03:39.025Z,23.80
2022-12-13T20:06:11.851Z,14.67
2022-12-13T20:08:39.354Z,17.30
2022-12-13T20:11:13.381Z,15.43
2022-12-13T20:13:41.275Z,20.07
2022-12-13T20:16:08.851Z,18.73
2022-12-13T20:18:35.957Z,19.80
2022-12-13T20:21:12.988Z,18.90
2022-12-13T20:23:41.708Z,19.00
2022-12-13T20:26:21.446Z,14.17
2022-12-13T20:28:50.282Z,20.47
2022-12-13T20:31:24.638Z,18.73
2022-12-13T20:34:02.646Z,24.37
2022-12-13T20:36:31.622Z,26.83
2022-12-13T20:39:01.867Z,23.77
2022-12-13T20:41:32.268Z,20.23
2022-12-13T20:44:01.932Z,20.00
2022-12-13T20:46:32.636Z,27.70
2022-12-13T20:49:03.526Z,28.10
2022-12-13T20:51:32.589Z,40.13
2022-12-13T20:54:00.343Z,42.07
2022-12-13T20:56:34.478Z,43.23
2022-12-13T20:59:03.912Z,47.40
2022-12-13T21:01:35.512Z,32.57
2022-12-13T21:04:05.877Z,24.67
2022-12-13T21:06:36.675Z,23.40
2022-12-13T21:09:06.002Z,31.93
2022-12-13T21:11:33.500Z,25.00
2022-12-13T21:14:14.995Z,32.00
2022-12-13T21:16:52.470Z,30.40
2022-12-13T21:19:24.110Z,25.97
2022-12-13T21:21:55.082Z,24.20
2022-12-13T21:24:26.259Z,27.83
2022-12-13T21:26:56.710Z,26.67
2022-12-13T21:29:24.703Z,25.03
2022-12-13T21:31:53.479Z,26.40
2022-12-13T21:34:22.884Z,26.23
2022-12-13T21:36:53.795Z,28.67
2022-12-13T21:39:30.472Z,21.43
2022-12-13T21:41:58.355Z,25.63
2022-12-13T21:44:25.492Z,29.13
2022-12-13T21:49:41.139Z,29.77
2022-12-13T21:52:08.251Z,29.53
2022-12-13T21:54:35.216Z,26.93
2022-12-13T21:57:20.931Z,32.40
2022-12-13T21:59:47.851Z,33.33
2022-12-13T22:02:20.414Z,24.23
2022-12-13T22:04:52.289Z,23.67
2022-12-13T22:07:26.277Z,41.57
2022-12-13T22:09:55.263Z,32.23
2022-12-13T22:12:42.026Z,36.37
2022-12-13T22:15:15.440Z,30.33
2022-12-13T22:17:43.544Z,33.70
2022-12-13T22:20:13.997Z,30.90
2022-12-13T22:22:44.336Z,26.73
2022-12-13T22:25:11.831Z,22.67
2022-12-13T22:27:38.896Z,23.70
2022-12-13T22:30:07.078Z,27.07
2022-12-13T22:32:34.077Z,20.97
2022-12-13T22:35:01.136Z,18.73
2022-12-13T22:37:28.122Z,26.20
2022-12-13T22:39:55.246Z,24.20
2022-12-13T22:42:22.817Z,31.63
2022-12-13T22:44:49.777Z,28.90
2022-12-13T22:47:16.960Z,22.77
2022-12-13T22:49:43.940Z,23.33
2022-12-13T22:52:10.946Z,32.73
2022-12-13T22:54:38.040Z,30.60
2022-12-13T22:57:05.206Z,29.47
2022-12-13T22:59:33.100Z,28.77
2022-12-13T23:02:02.997Z,33.63
2022-12-13T23:04:32.037Z,27.80
2022-12-13T23:06:59.461Z,31.87
2022-12-13T23:09:26.582Z,32.20
2022-12-13T23:12:12.146Z,31.53
2022-12-13T23:14:39.121Z,33.17
2022-12-13T23:17:07.886Z,28.70
2022-12-13T23:19:49.677Z,21.07
2022-12-13T23:22:19.931Z,27.33
2022-12-13T23:24:46.896Z,26.20
2022-12-13T23:27:13.907Z,25.57
2022-12-13T23:29:40.906Z,28.57
2022-12-13T23:32:07.793Z,27.70
2022-12-13T23:34:34.921Z,31.27
2022-12-13T23:37:01.870Z,22.40
2022-12-13T23:39:28.818Z,26.40
2022-12-13T23:41:55.797Z,25.57
2022-12-13T23:44:23.002Z,29.40
2022-12-13T23:46:49.963Z,29.03
2022-12-13T23:49:16.988Z,31.10
2022-12-13T23:51:43.997Z,28.43
2022-12-13T23:54:18.031Z,26.73
2022-12-13T23:56:45.262Z,36.60
2022-12-13T23:59:12.351Z,30.37
